createdAt,value
2023-03-26T00:00:15.507Z,99736.16
2023-03-26T00:02:45.225Z,99725.25
2023-03-26T00:05:17.355Z,99724.34
2023-03-26T00:07:47.264Z,99739.81
2023-03-26T00:10:16.696Z,99738.66
2023-03-26T00:12:46.142Z,99737.28
2023-03-26T00:15:15.424Z,99742.06
2023-03-26T00:17:46.684Z,99751.22
2023-03-26T00:20:18.858Z,99747.47
2023-03-26T00:22:48.226Z,99751.22
2023-03-26T00:25:17.557Z,99761.97
2023-03-26T00:27:46.929Z,99755.56
2023-03-26T00:30:16.678Z,99769.28
2023-03-26T00:32:53.686Z,99757.59
2023-03-26T00:35:25.982Z,99769.44
2023-03-26T00:37:55.300Z,99772.34
2023-03-26T00:40:24.834Z,99770.56
2023-03-26T00:42:54.148Z,99771.84
2023-03-26T00:45:23.947Z,99773.25
2023-03-26T00:47:53.284Z,99771.56
2023-03-26T00:50:22.650Z,99772.50
2023-03-26T00:52:55.965Z,99777.19
2023-03-26T00:55:25.300Z,99786.75
2023-03-26T00:57:55.557Z,99779.41
2023-03-26T01:03:10.262Z,99779.22
2023-03-26T01:05:53.303Z,99778.69
2023-03-26T01:08:30.760Z,99786.97
2023-03-26T01:11:07.321Z,99786.75
2023-03-26T01:13:40.039Z,99790.50
2023-03-26T01:16:20.514Z,99798.31
2023-03-26T01:18:52.833Z,99786.84
2023-03-26T01:21:28.737Z,99792.25
2023-03-26T01:24:02.679Z,99790.69
2023-03-26T01:26:45.644Z,99798.50
2023-03-26T01:29:22.621Z,99794.47
2023-03-26T01:32:00.146Z,99792.31
2023-03-26T01:34:40.062Z,99799.84
2023-03-26T01:37:17.996Z,99805.59
2023-03-26T01:39:57.104Z,99810.63
2023-03-26T01:42:34.970Z,99797.84
2023-03-26T01:45:12.692Z,99803.41
2023-03-26T01:47:43.919Z,99810.91
2023-03-26T01:50:13.866Z,99815.81
2023-03-26T01:52:43.254Z,99814.13
2023-03-26T01:55:16.249Z,99824.97
2023-03-26T01:57:58.441Z,99813.47
2023-03-26T02:00:32.653Z,99816.03
2023-03-26T02:03:17.784Z,99823.75
2023-03-26T02:05:56.833Z,99825.53
2023-03-26T02:08:35.744Z,99827.66
2023-03-26T02:11:11.845Z,99819.78
2023-03-26T02:13:42.246Z,99833.81
2023-03-26T02:16:16.602Z,99831.69
2023-03-26T02:18:47.593Z,99833.13
2023-03-26T02:21:20.609Z,99831.28
2023-03-26T02:23:57.944Z,99829.47
2023-03-26T02:26:30.065Z,99824.16
2023-03-26T02:28:59.797Z,99818.56
2023-03-26T02:31:30.391Z,99815.09
2023-03-26T02:33:59.925Z,99809.94
2023-03-26T02:36:29.959Z,99832.75
2023-03-26T02:39:00.549Z,99832.75
2023-03-26T02:41:32.456Z,99826.97
2023-03-26T02:44:01.794Z,99825.97
2023-03-26T02:46:31.132Z,99825.13
2023-03-26T02:49:00.672Z,99835.69
2023-03-26T02:51:29.964Z,99837.56
2023-03-26T02:53:59.568Z,99841.22
2023-03-26T02:56:28.881Z,99840.78
2023-03-26T02:59:00.882Z,99838.91
2023-03-26T03:01:30.970Z,99839.47
2023-03-26T03:04:01.621Z,99832.53
2023-03-26T03:06:31.093Z,99838.91
2023-03-26T03:09:02.819Z,99840.03
2023-03-26T03:11:32.140Z,99845.41
2023-03-26T03:14:04.527Z,99835.84
2023-03-26T03:16:34.349Z,99836.69
2023-03-26T03:19:03.708Z,99830.97
2023-03-26T03:21:33.134Z,99831.56
2023-03-26T03:24:02.500Z,99830.84
2023-03-26T03:26:31.851Z,99824.91
2023-03-26T03:29:14.181Z,99820.25
2023-03-26T03:31:43.963Z,99828.59
2023-03-26T03:34:13.359Z,99821.56
2023-03-26T03:36:42.689Z,99822.69
2023-03-26T03:39:11.997Z,99815.50
2023-03-26T03:41:41.353Z,99822.88
2023-03-26T03:44:13.253Z,99817.19
2023-03-26T03:46:42.587Z,99816.72
2023-03-26T03:49:11.935Z,99816.47
2023-03-26T03:51:41.232Z,99816.56
2023-03-26T03:54:11.264Z,99821.84
2023-03-26T03:56:40.737Z,99821.28
2023-03-26T03:59:12.808Z,99811.56
2023-03-26T04:01:43.174Z,99820.88
2023-03-26T04:04:12.880Z,99814.69
2023-03-26T04:06:42.269Z,99816.50
2023-03-26T04:09:11.816Z,99821.38
2023-03-26T04:11:41.238Z,99823.59
2023-03-26T04:14:13.173Z,99821.84
2023-03-26T04:16:42.544Z,99817.19
2023-03-26T04:19:11.844Z,99816.50
2023-03-26T04:21:42.901Z,99813.94
2023-03-26T04:24:12.931Z,99815.50
2023-03-26T04:26:42.288Z,99804.81
2023-03-26T04:29:21.149Z,99809.72
2023-03-26T04:31:50.824Z,99811.22
2023-03-26T04:34:27.157Z,99808.53
2023-03-26T04:36:59.479Z,99813.03
2023-03-26T04:39:36.369Z,99810.03
2023-03-26T04:42:05.917Z,99812.63
2023-03-26T04:44:40.590Z,99816.88
2023-03-26T04:47:11.892Z,99813.69
2023-03-26T04:49:43.948Z,99817.88
2023-03-26T04:52:13.955Z,99820.81
2023-03-26T04:54:45.893Z,99821.50
2023-03-26T04:57:22.019Z,99821.84
2023-03-26T04:59:53.912Z,99823.75
2023-03-26T05:02:23.331Z,99814.66
2023-03-26T05:04:52.760Z,99818.28
2023-03-26T05:07:24.335Z,99821.91
2023-03-26T05:09:53.653Z,99823.97
2023-03-26T05:12:22.977Z,99823.31
2023-03-26T05:14:54.863Z,99819.56
2023-03-26T05:17:26.768Z,99813.88
2023-03-26T05:19:56.248Z,99816.50
2023-03-26T05:22:25.899Z,99805.56
2023-03-26T05:24:56.383Z,99806.59
2023-03-26T05:27:25.855Z,99809.16
2023-03-26T05:30:03.926Z,99819.38
2023-03-26T05:32:33.890Z,99811.59
2023-03-26T05:35:04.042Z,99810.44
2023-03-26T05:37:35.799Z,99811.72
2023-03-26T05:40:07.398Z,99823.09
2023-03-26T05:42:39.199Z,99817.56
2023-03-26T05:45:15.117Z,99826.78
2023-03-26T05:47:44.679Z,99824.41
2023-03-26T05:50:14.466Z,99823.06
2023-03-26T05:52:46.991Z,99826.91
2023-03-26T05:55:21.172Z,99834.59
2023-03-26T05:57:50.677Z,99832.50
2023-03-26T06:00:24.301Z,99828.16
2023-03-26T06:02:56.930Z,99835.44
2023-03-26T06:05:26.986Z,99822.69
2023-03-26T06:07:56.329Z,99828.53
2023-03-26T06:10:25.648Z,99826.09
2023-03-26T06:12:54.980Z,99833.63
2023-03-26T06:15:26.886Z,99834.69
2023-03-26T06:17:56.253Z,99832.56
2023-03-26T06:20:25.672Z,99832.56
2023-03-26T06:22:54.997Z,99829.91
2023-03-26T06:25:24.301Z,99839.00
2023-03-26T06:27:53.649Z,99838.22
2023-03-26T06:30:22.967Z,99833.81
2023-03-26T06:32:54.926Z,99837.03
2023-03-26T06:35:24.688Z,99839.13
2023-03-26T06:37:53.969Z,99851.59
2023-03-26T06:40:23.310Z,99849.81
2023-03-26T06:43:07.958Z,99849.94
2023-03-26T06:45:40.392Z,99844.28
2023-03-26T06:48:12.299Z,99846.13
2023-03-26T06:50:41.633Z,99839.81
2023-03-26T06:53:11.640Z,99840.25
2023-03-26T06:55:41.966Z,99851.59
2023-03-26T06:58:14.218Z,99852.75
2023-03-26T07:00:43.747Z,99858.50
2023-03-26T07:03:17.388Z,99860.59
2023-03-26T07:05:46.903Z,99861.38
2023-03-26T07:08:16.321Z,99865.66
2023-03-26T07:10:45.666Z,99868.69
2023-03-26T07:13:15.120Z,99865.72
2023-03-26T07:15:44.823Z,99863.03
2023-03-26T07:18:16.791Z,99859.06
2023-03-26T07:20:47.662Z,99854.19
2023-03-26T07:23:20.222Z,99856.31
2023-03-26T07:25:50.863Z,99855.19
2023-03-26T07:28:28.245Z,99853.88
2023-03-26T07:31:19.844Z,99849.66
2023-03-26T07:34:02.455Z,99843.28
2023-03-26T07:36:38.952Z,99843.16
2023-03-26T07:39:20.097Z,99839.75
2023-03-26T07:41:53.660Z,99837.03
2023-03-26T07:44:35.840Z,99837.19
2023-03-26T07:47:18.281Z,99840.94
2023-03-26T07:49:51.863Z,99839.41
2023-03-26T07:52:21.763Z,99840.38
2023-03-26T07:54:51.982Z,99839.47
2023-03-26T07:57:34.755Z,99836.00
2023-03-26T08:00:12.360Z,99835.88
2023-03-26T08:02:58.642Z,99833.81
2023-03-26T08:05:33.933Z,99836.78
2023-03-26T08:08:11.773Z,99834.91
2023-03-26T08:10:52.594Z,99828.78
2023-03-26T08:13:28.100Z,99833.81
2023-03-26T08:16:08.295Z,99834.81
2023-03-26T08:18:49.090Z,99845.69
2023-03-26T08:21:26.433Z,99846.06
2023-03-26T08:24:03.710Z,99841.84
2023-03-26T08:26:42.136Z,99835.34
2023-03-26T08:29:20.900Z,99838.03
2023-03-26T08:31:52.183Z,99833.56
2023-03-26T08:34:21.930Z,99836.94
2023-03-26T08:36:53.850Z,99838.38
2023-03-26T08:39:23.196Z,99839.00
2023-03-26T08:42:20.865Z,99840.06
2023-03-26T08:45:26.053Z,99845.97
2023-03-26T08:48:08.589Z,99842.97
2023-03-26T08:51:10.631Z,99848.69
2023-03-26T08:54:06.292Z,99838.50
2023-03-26T08:56:45.837Z,99844.78
2023-03-26T08:59:45.196Z,99842.50
2023-03-26T09:02:54.344Z,99845.59
2023-03-26T09:05:56.048Z,99844.47
2023-03-26T09:08:53.647Z,99846.09
2023-03-26T09:11:59.861Z,99844.28
2023-03-26T09:15:09.605Z,99849.59
2023-03-26T09:18:12.029Z,99857.63
2023-03-26T09:20:57.881Z,99858.63
2023-03-26T09:23:52.761Z,99850.19
2023-03-26T09:26:28.809Z,99847.59
2023-03-26T09:29:33.095Z,99848.44
2023-03-26T09:32:24.980Z,99846.91
2023-03-26T09:35:13.086Z,99852.19
2023-03-26T09:38:00.860Z,99851.25
2023-03-26T09:40:44.000Z,99850.81
2023-03-26T09:43:49.758Z,99858.59
2023-03-26T09:46:32.370Z,99856.72
2023-03-26T09:49:29.721Z,99865.47
2023-03-26T09:52:16.412Z,99865.34
2023-03-26T09:55:16.193Z,99865.41
2023-03-26T09:58:03.814Z,99869.59
2023-03-26T10:00:44.594Z,99874.88
2023-03-26T10:03:26.890Z,99868.19
2023-03-26T10:06:13.053Z,99882.53
2023-03-26T10:09:04.256Z,99882.28
2023-03-26T10:11:49.380Z,99870.88
2023-03-26T10:14:27.343Z,99874.69
2023-03-26T10:17:07.316Z,99874.31
2023-03-26T10:19:56.529Z,99871.56
2023-03-26T10:22:44.560Z,99867.16
2023-03-26T10:25:28.038Z,99861.16
2023-03-26T10:28:12.264Z,99864.88
2023-03-26T10:30:55.337Z,99855.94
2023-03-26T10:33:33.569Z,99856.25
2023-03-26T10:36:25.888Z,99863.16
2023-03-26T10:39:37.055Z,99862.66
2023-03-26T10:42:23.916Z,99852.81
2023-03-26T10:45:16.912Z,99862.78
2023-03-26T10:48:06.077Z,99853.72
2023-03-26T10:50:52.531Z,99853.97
2023-03-26T10:53:33.802Z,99844.22
2023-03-26T10:56:18.661Z,99849.69
2023-03-26T10:58:49.663Z,99850.28
2023-03-26T11:01:31.646Z,99851.25
2023-03-26T11:04:09.433Z,99851.88
2023-03-26T11:06:47.947Z,99848.56
2023-03-26T11:09:27.299Z,99864.16
2023-03-26T11:12:26.777Z,99851.50
2023-03-26T11:15:04.436Z,99849.09
2023-03-26T11:17:46.374Z,99851.50
2023-03-26T11:20:22.865Z,99847.66
2023-03-26T11:23:10.070Z,99849.94
2023-03-26T11:25:53.785Z,99847.22
2023-03-26T11:28:40.467Z,99842.00
2023-03-26T11:31:22.160Z,99840.28
2023-03-26T11:33:56.816Z,99839.75
2023-03-26T11:36:32.561Z,99839.19
2023-03-26T11:39:05.732Z,99842.00
2023-03-26T11:41:35.182Z,99838.28
2023-03-26T11:44:16.218Z,99840.22
2023-03-26T11:46:49.340Z,99839.03
2023-03-26T11:49:21.796Z,99844.88
2023-03-26T11:51:51.841Z,99842.59
2023-03-26T11:54:22.545Z,99834.97
2023-03-26T11:57:04.733Z,99838.88
2023-03-26T11:59:55.685Z,99839.44
2023-03-26T12:02:34.281Z,99838.34
2023-03-26T12:05:15.782Z,99839.75
2023-03-26T12:07:49.674Z,99834.75
2023-03-26T12:10:28.750Z,99840.69
2023-03-26T12:13:01.286Z,99829.91
2023-03-26T12:15:34.216Z,99831.19
2023-03-26T12:18:26.091Z,99833.34
2023-03-26T12:21:08.505Z,99827.63
2023-03-26T12:23:53.169Z,99831.69
2023-03-26T12:26:31.853Z,99831.25
2023-03-26T12:29:09.353Z,99824.47
2023-03-26T12:32:06.070Z,99830.69
2023-03-26T12:34:38.481Z,99835.09
2023-03-26T12:37:09.557Z,99828.38
2023-03-26T12:40:09.380Z,99825.63
2023-03-26T12:44:44.625Z,99822.34
2023-03-26T12:45:24.704Z,99820.56
2023-03-26T12:48:03.733Z,99822.53
2023-03-26T12:50:48.186Z,99827.69
2023-03-26T12:53:37.749Z,99823.09
2023-03-26T12:56:22.027Z,99817.19
2023-03-26T12:59:05.412Z,99827.53
2023-03-26T13:01:46.241Z,99824.19
2023-03-26T13:05:04.428Z,99821.97
2023-03-26T13:07:54.800Z,99818.97
2023-03-26T13:10:38.525Z,99822.78
2023-03-26T13:13:21.721Z,99831.25
2023-03-26T13:15:55.210Z,99827.50
2023-03-26T13:18:46.664Z,99816.06
2023-03-26T13:21:24.527Z,99818.72
2023-03-26T13:24:01.811Z,99810.09
2023-03-26T13:26:50.114Z,99812.78
2023-03-26T13:29:25.788Z,99816.00
2023-03-26T13:32:06.120Z,99806.03
2023-03-26T13:34:42.788Z,99815.38
2023-03-26T13:37:18.988Z,99820.47
2023-03-26T13:40:00.447Z,99818.09
2023-03-26T13:42:44.597Z,99815.13
2023-03-26T13:45:25.585Z,99808.25
2023-03-26T13:47:59.904Z,99796.16
2023-03-26T13:50:32.981Z,99800.28
2023-03-26T13:53:09.171Z,99808.56
2023-03-26T13:55:42.676Z,99815.91
2023-03-26T13:58:17.470Z,99808.31
2023-03-26T14:00:57.283Z,99806.84
2023-03-26T14:03:36.092Z,99802.59
2023-03-26T14:06:13.821Z,99805.63
2023-03-26T14:08:50.184Z,99808.06
2023-03-26T14:11:25.314Z,99799.44
2023-03-26T14:14:00.740Z,99810.25
2023-03-26T14:16:39.170Z,99803.72
2023-03-26T14:19:25.250Z,99808.25
2023-03-26T14:22:06.803Z,99807.03
2023-03-26T14:25:01.862Z,99806.91
2023-03-26T14:27:43.662Z,99815.03
2023-03-26T14:30:51.605Z,99813.94
2023-03-26T14:33:36.193Z,99809.47
2023-03-26T14:36:14.085Z,99809.19
2023-03-26T14:39:01.419Z,99808.63
2023-03-26T14:41:42.375Z,99803.53
2023-03-26T14:44:48.419Z,99795.19
2023-03-26T14:47:20.757Z,99802.75
2023-03-26T14:50:15.794Z,99802.75
2023-03-26T14:52:50.513Z,99800.94
2023-03-26T14:55:41.563Z,99806.47
2023-03-26T14:58:41.475Z,99807.31
2023-03-26T15:01:29.587Z,99813.78
2023-03-26T15:04:28.584Z,99812.41
2023-03-26T15:07:39.369Z,99803.28
2023-03-26T15:10:25.389Z,99799.03
2023-03-26T15:13:12.926Z,99810.03
2023-03-26T15:16:19.289Z,99805.66
2023-03-26T15:19:23.994Z,99804.06
2023-03-26T15:22:36.655Z,99807.25
2023-03-26T15:25:42.060Z,99805.88
2023-03-26T15:28:34.731Z,99814.53
2023-03-26T15:31:41.112Z,99805.34
2023-03-26T15:34:33.803Z,99808.88
2023-03-26T15:37:38.523Z,99817.75
2023-03-26T15:40:44.204Z,99820.34
2023-03-26T15:43:15.523Z,99811.81
2023-03-26T15:45:48.339Z,99814.97
2023-03-26T15:48:37.572Z,99815.81
2023-03-26T15:51:46.538Z,99816.59
2023-03-26T15:54:25.870Z,99814.47
2023-03-26T15:57:20.649Z,99819.25
2023-03-26T16:00:12.537Z,99820.16
2023-03-26T16:02:50.217Z,99816.66
2023-03-26T16:05:34.826Z,99823.41
2023-03-26T16:08:19.054Z,99822.31
2023-03-26T16:10:53.762Z,99816.09
2023-03-26T16:13:35.216Z,99821.75
2023-03-26T16:16:25.942Z,99825.75
2023-03-26T16:19:01.138Z,99816.31
2023-03-26T16:21:56.716Z,99820.66
2023-03-26T16:24:32.063Z,99828.41
2023-03-26T16:27:08.390Z,99831.59
2023-03-26T16:30:12.869Z,99822.50
2023-03-26T16:32:48.314Z,99832.97
2023-03-26T16:35:47.897Z,99830.78
2023-03-26T16:38:18.671Z,99833.28
2023-03-26T16:41:03.796Z,99838.56
2023-03-26T16:43:43.848Z,99844.72
2023-03-26T16:46:26.307Z,99838.94
2023-03-26T16:49:06.462Z,99856.78
2023-03-26T16:51:54.311Z,99852.47
2023-03-26T16:54:27.956Z,99861.69
2023-03-26T16:57:03.356Z,99860.09
2023-03-26T17:00:06.080Z,99856.31
2023-03-26T17:02:46.469Z,99863.03
2023-03-26T17:05:25.295Z,99864.56
2023-03-26T17:08:05.130Z,99869.94
2023-03-26T17:10:42.032Z,99875.59
2023-03-26T17:13:20.520Z,99881.22
2023-03-26T17:16:01.691Z,99879.44
2023-03-26T17:18:42.451Z,99886.59
2023-03-26T17:21:18.593Z,99882.00
2023-03-26T17:24:15.099Z,99884.19
2023-03-26T17:26:53.155Z,99886.31
2023-03-26T17:29:32.458Z,99887.81
2023-03-26T17:32:08.809Z,99892.13
2023-03-26T17:35:11.804Z,99898.41
2023-03-26T17:37:48.145Z,99901.09
2023-03-26T17:40:59.269Z,99894.78
2023-03-26T17:43:44.872Z,99899.19
2023-03-26T17:46:36.265Z,99906.34
2023-03-26T17:49:16.242Z,99900.44
2023-03-26T17:51:52.648Z,99907.56
2023-03-26T17:54:29.651Z,99916.84
2023-03-26T17:57:04.801Z,99909.97
2023-03-26T17:59:37.470Z,99913.09
2023-03-26T18:02:15.239Z,99923.84
2023-03-26T18:04:48.705Z,99933.31
2023-03-26T18:07:48.880Z,99933.41
2023-03-26T18:10:36.463Z,99945.31
2023-03-26T18:13:21.144Z,99948.44
2023-03-26T18:15:58.790Z,99946.66
2023-03-26T18:18:34.867Z,99949.47
2023-03-26T18:21:08.365Z,99952.31
2023-03-26T18:23:41.113Z,99951.63
2023-03-26T18:26:19.657Z,99962.44
2023-03-26T18:28:54.410Z,99961.63
2023-03-26T18:31:27.028Z,99966.03
2023-03-26T18:33:59.413Z,99973.00
2023-03-26T18:36:30.410Z,99964.06
2023-03-26T18:39:03.354Z,99972.50
2023-03-26T18:41:41.683Z,99972.06
2023-03-26T18:44:17.361Z,99968.00
2023-03-26T18:46:46.875Z,99965.28
2023-03-26T18:49:18.178Z,99980.25
2023-03-26T18:51:56.748Z,99981.41
2023-03-26T18:54:27.689Z,99977.50
2023-03-26T18:57:00.370Z,99981.41
2023-03-26T18:59:32.530Z,99985.00
2023-03-26T19:02:04.981Z,99993.22
2023-03-26T19:04:36.975Z,99989.09
2023-03-26T19:07:17.277Z,99996.22
2023-03-26T19:09:48.814Z,100002.22
2023-03-26T19:12:25.669Z,100011.34
2023-03-26T19:15:00.286Z,100013.91
2023-03-26T19:17:34.547Z,100018.34
2023-03-26T19:20:07.611Z,100021.97
2023-03-26T19:22:37.411Z,100018.50
2023-03-26T19:25:09.353Z,100028.97
2023-03-26T19:27:41.564Z,100029.56
2023-03-26T19:30:28.420Z,100035.38
2023-03-26T19:33:13.159Z,100032.06
2023-03-26T19:35:44.747Z,100033.66
2023-03-26T19:38:25.382Z,100040.31
2023-03-26T19:40:57.078Z,100034.44
2023-03-26T19:43:29.925Z,100041.06
2023-03-26T19:46:01.844Z,100036.50
2023-03-26T19:48:45.825Z,100040.59
2023-03-26T19:51:22.546Z,100042.97
2023-03-26T19:53:55.875Z,100038.50
2023-03-26T19:56:25.720Z,100042.56
2023-03-26T19:58:59.306Z,100052.16
2023-03-26T20:01:32.041Z,100052.03
2023-03-26T20:04:04.388Z,100052.81
2023-03-26T20:06:42.605Z,100064.56
2023-03-26T20:09:13.756Z,100066.22
2023-03-26T20:11:43.337Z,100059.25
2023-03-26T20:14:24.503Z,100074.63
2023-03-26T20:16:54.017Z,100070.72
2023-03-26T20:19:24.053Z,100069.09
2023-03-26T20:21:53.600Z,100067.38
2023-03-26T20:24:24.849Z,100068.19
2023-03-26T20:26:54.438Z,100073.31
2023-03-26T20:29:28.314Z,100076.31
2023-03-26T20:31:58.169Z,100080.84
2023-03-26T20:34:28.051Z,100079.56
2023-03-26T20:37:01.227Z,100080.06
2023-03-26T20:39:31.200Z,100089.47
2023-03-26T20:42:00.900Z,100092.09
2023-03-26T20:44:32.866Z,100094.00
2023-03-26T20:47:03.832Z,100098.41
2023-03-26T20:49:33.343Z,100097.44
2023-03-26T20:52:03.283Z,100099.31
2023-03-26T20:54:33.050Z,100112.34
2023-03-26T20:57:03.238Z,100112.97
2023-03-26T20:59:36.158Z,100119.91
2023-03-26T21:02:05.910Z,100113.81
2023-03-26T21:04:35.295Z,100121.06
2023-03-26T21:07:17.850Z,100130.13
2023-03-26T21:09:49.096Z,100126.75
2023-03-26T21:12:30.699Z,100119.19
2023-03-26T21:15:16.738Z,100133.09
2023-03-26T21:17:55.125Z,100133.41
2023-03-26T21:20:28.045Z,100131.94
2023-03-26T21:23:08.622Z,100141.03
2023-03-26T21:25:46.370Z,100140.44
2023-03-26T21:28:41.938Z,100147.63
2023-03-26T21:31:21.003Z,100156.75
2023-03-26T21:33:55.424Z,100161.31
2023-03-26T21:36:26.019Z,100170.31
2023-03-26T21:38:56.814Z,100166.00
2023-03-26T21:41:38.762Z,100180.91
2023-03-26T21:44:08.228Z,100176.84
2023-03-26T21:46:44.511Z,100184.56
2023-03-26T21:49:16.062Z,100187.19
2023-03-26T21:51:46.764Z,100200.31
2023-03-26T21:54:29.480Z,100200.56
2023-03-26T21:57:13.134Z,100208.47
2023-03-26T21:59:51.965Z,100210.56
2023-03-26T22:02:28.763Z,100223.59
2023-03-26T22:05:03.918Z,100219.75
2023-03-26T22:07:44.970Z,100224.69
2023-03-26T22:10:17.357Z,100228.72
2023-03-26T22:12:46.764Z,100222.19
2023-03-26T22:15:18.357Z,100243.38
2023-03-26T22:17:54.192Z,100247.34
2023-03-26T22:20:25.692Z,100241.81
2023-03-26T22:22:55.443Z,100253.78
2023-03-26T22:25:27.581Z,100255.38
2023-03-26T22:27:57.627Z,100248.88
2023-03-26T22:30:27.352Z,100257.34
2023-03-26T22:32:59.351Z,100254.84
2023-03-26T22:35:28.905Z,100264.38
2023-03-26T22:38:00.815Z,100271.44
2023-03-26T22:40:30.944Z,100271.56
2023-03-26T22:43:00.322Z,100274.22
2023-03-26T22:45:30.169Z,100273.19
2023-03-26T22:48:04.634Z,100287.16
2023-03-26T22:50:34.972Z,100293.94
2023-03-26T22:53:04.985Z,100299.34
2023-03-26T22:55:34.332Z,100294.19
2023-03-26T22:58:03.674Z,100308.25
2023-03-26T23:00:33.131Z,100315.28
2023-03-26T23:03:05.864Z,100322.03
2023-03-26T23:05:35.434Z,100317.50
2023-03-26T23:08:04.794Z,100322.56
2023-03-26T23:10:34.134Z,100327.78
2023-03-26T23:13:03.770Z,100333.00
2023-03-26T23:15:33.167Z,100340.59
2023-03-26T23:18:05.125Z,100343.13
2023-03-26T23:20:39.282Z,100348.13
2023-03-26T23:23:08.670Z,100341.78
2023-03-26T23:25:38.071Z,100350.91
2023-03-26T23:28:07.480Z,100356.94
2023-03-26T23:30:36.824Z,100364.69
2023-03-26T23:33:11.288Z,100364.81
2023-03-26T23:35:46.215Z,100359.59
2023-03-26T23:38:15.742Z,100372.28
2023-03-26T23:40:56.938Z,100378.53
2023-03-26T23:43:27.457Z,100374.47
2023-03-26T23:46:00.555Z,100386.47
2023-03-26T23:48:34.024Z,100385.16
2023-03-26T23:51:04.437Z,100383.84
2023-03-26T23:53:34.749Z,100401.72
2023-03-26T23:56:07.273Z,100394.41
2023-03-26T23:58:37.657Z,100399.75
